Time;durP1;ratioP1;P1;durP2;ratioP2;P2;SDS_P1;SDS_P2;PMS_P1;PMS_P2;Temp;Humidity;BMP_temperature;BMP_pressure;BME280_temperature;BME280_humidity;BME280_pressure;Samples;Min_cycle;Max_cycle;Signal;HPM_P1;HPM_P2
2021/12/18 00:00:40;;;;;;;6.17;3.87;;;;;;;;;;5084913;28;20500;-83
2021/12/18 00:03:07;;;;;;;5.70;3.47;;;;;;;;;;5083748;28;20475;-84
2021/12/18 00:05:33;;;;;;;8.37;4.80;;;;;;;;;;5085237;28;20478;-83
2021/12/18 00:08:00;;;;;;;6.50;4.77;;;;;;;;;;5082304;28;20486;-83
2021/12/18 00:10:26;;;;;;;8.03;4.70;;;;;;;;;;5085697;28;21330;-83
2021/12/18 00:12:53;;;;;;;5.63;3.30;;;;;;;;;;5084439;28;20481;-83
2021/12/18 00:15:20;;;;;;;8.13;4.30;;;;;;;;;;5083004;28;20837;-83
2021/12/18 00:17:48;;;;;;;6.20;3.83;;;;;;;;;;5083936;28;20509;-82
2021/12/18 00:20:16;;;;;;;6.80;4.60;;;;;;;;;;5081609;28;20865;-83
2021/12/18 00:22:42;;;;;;;4.70;3.47;;;;;;;;;;5084419;28;20887;-82
2021/12/18 00:25:09;;;;;;;5.70;4.43;;;;;;;;;;5085306;28;20478;-83
2021/12/18 00:27:36;;;;;;;7.17;4.33;;;;;;;;;;5084668;28;20998;-83
2021/12/18 00:30:02;;;;;;;7.70;4.60;;;;;;;;;;5083654;28;20486;-83
2021/12/18 00:32:29;;;;;;;11.87;4.80;;;;;;;;;;5084128;28;21026;-83
2021/12/18 00:34:56;;;;;;;7.37;4.80;;;;;;;;;;5084192;28;20899;-83
2021/12/18 00:37:23;;;;;;;8.80;6.00;;;;;;;;;;5084300;28;20840;-83
2021/12/18 00:39:55;;;;;;;8.73;5.60;;;;;;;;;;5084086;28;20540;-83
2021/12/18 00:42:36;;;;;;;8.23;5.87;;;;;;;;;;5084384;28;21019;-83
2021/12/18 00:45:02;;;;;;;10.00;4.70;;;;;;;;;;5083844;28;20488;-83
2021/12/18 00:47:28;;;;;;;10.43;5.10;;;;;;;;;;5083378;28;20501;-83
2021/12/18 00:49:56;;;;;;;9.17;4.40;;;;;;;;;;5083376;28;20470;-83
2021/12/18 00:52:23;;;;;;;5.90;3.43;;;;;;;;;;5083833;28;20536;-83
2021/12/18 00:54:50;;;;;;;5.17;3.47;;;;;;;;;;5082123;28;20474;-83
2021/12/18 00:57:17;;;;;;;4.13;2.50;;;;;;;;;;5083578;28;20476;-83
2021/12/18 00:59:43;;;;;;;4.93;2.80;;;;;;;;;;5084259;28;20857;-82
2021/12/18 01:02:09;;;;;;;6.50;3.10;;;;;;;;;;5083747;28;20481;-83
2021/12/18 01:04:35;;;;;;;7.13;2.90;;;;;;;;;;5081416;28;20482;-83
2021/12/18 01:07:03;;;;;;;5.07;3.00;;;;;;;;;;5081299;28;20482;-83
2021/12/18 01:09:45;;;;;;;5.00;3.20;;;;;;;;;;5082607;28;20473;-83
2021/12/18 01:12:11;;;;;;;6.50;3.00;;;;;;;;;;5083154;28;20493;-83
2021/12/18 01:14:51;;;;;;;6.43;3.00;;;;;;;;;;5085350;28;20492;-83
2021/12/18 01:22:53;;;;;;;5.47;3.00;;;;;;;;;;5083887;28;21051;-83
2021/12/18 01:25:20;;;;;;;4.60;2.80;;;;;;;;;;5083298;28;20479;-83
2021/12/18 01:27:47;;;;;;;6.47;3.17;;;;;;;;;;5084816;28;20843;-83
2021/12/18 01:30:14;;;;;;;7.57;4.40;;;;;;;;;;5083645;28;20465;-83
2021/12/18 01:32:41;;;;;;;9.40;4.00;;;;;;;;;;5082947;28;20489;-83
2021/12/18 01:35:07;;;;;;;7.87;3.33;;;;;;;;;;5084266;28;21023;-83
2021/12/18 01:37:34;;;;;;;7.67;3.90;;;;;;;;;;5083696;28;20884;-83
2021/12/18 01:40:01;;;;;;;7.30;4.70;;;;;;;;;;5083470;28;20466;-83
2021/12/18 01:45:15;;;;;;;7.13;4.67;;;;;;;;;;5078262;28;20458;-83
2021/12/18 01:53:12;;;;;;;7.13;3.83;;;;;;;;;;5078750;28;20469;-83
2021/12/18 01:55:41;;;;;;;9.10;5.00;;;;;;;;;;5083948;28;20464;-83
2021/12/18 01:58:08;;;;;;;5.20;3.80;;;;;;;;;;5083481;28;20462;-83
2021/12/18 02:00:36;;;;;;;5.03;3.80;;;;;;;;;;5084124;28;20446;-83
2021/12/18 02:03:03;;;;;;;6.60;3.40;;;;;;;;;;5083751;28;20466;-84
2021/12/18 02:05:29;;;;;;;7.80;3.97;;;;;;;;;;5085805;28;20451;-83
2021/12/18 02:07:55;;;;;;;9.57;4.20;;;;;;;;;;5083707;28;20489;-83
2021/12/18 02:10:25;;;;;;;9.97;4.10;;;;;;;;;;5084292;28;20478;-83
2021/12/18 02:12:59;;;;;;;9.60;4.73;;;;;;;;;;5083459;28;20487;-83
2021/12/18 02:20:55;;;;;;;14.43;5.10;;;;;;;;;;5085282;28;20436;-83
2021/12/18 02:23:22;;;;;;;11.97;5.10;;;;;;;;;;5082453;28;20466;-83
2021/12/18 02:25:48;;;;;;;13.03;5.60;;;;;;;;;;5085156;28;20450;-83
2021/12/18 02:28:18;;;;;;;11.57;6.40;;;;;;;;;;5082060;28;20457;-83
2021/12/18 02:30:46;;;;;;;15.67;5.60;;;;;;;;;;5084637;28;20473;-83
2021/12/18 02:33:13;;;;;;;14.20;6.00;;;;;;;;;;5086374;28;20481;-83
2021/12/18 02:35:44;;;;;;;10.43;5.30;;;;;;;;;;5086594;28;20500;-83
2021/12/18 02:38:16;;;;;;;13.00;7.50;;;;;;;;;;5087393;28;20974;-83
2021/12/18 02:43:30;;;;;;;10.73;5.60;;;;;;;;;;5085982;28;20464;-84
2021/12/18 02:45:59;;;;;;;14.90;5.97;;;;;;;;;;5087343;28;20442;-83
2021/12/18 02:48:26;;;;;;;18.33;8.07;;;;;;;;;;5087092;28;20466;-83
2021/12/18 02:50:53;;;;;;;19.00;7.27;;;;;;;;;;5087806;28;20874;-84
2021/12/18 02:53:20;;;;;;;15.47;6.50;;;;;;;;;;5083944;28;20478;-83
2021/12/18 02:55:53;;;;;;;17.90;6.63;;;;;;;;;;5084168;28;20516;-84
2021/12/18 02:58:19;;;;;;;12.87;6.13;;;;;;;;;;5083965;28;20967;-83
2021/12/18 03:00:45;;;;;;;14.23;5.60;;;;;;;;;;5088414;28;20951;-84
2021/12/18 03:03:14;;;;;;;12.13;4.67;;;;;;;;;;5086663;28;20898;-83
2021/12/18 03:05:48;;;;;;;14.50;6.97;;;;;;;;;;5087655;28;20490;-84
2021/12/18 03:08:22;;;;;;;14.47;5.60;;;;;;;;;;5084763;28;21010;-83
2021/12/18 03:19:41;;;;;;;11.47;4.93;;;;;;;;;;5085001;28;21010;-83
2021/12/18 03:22:36;;;;;;;14.73;5.33;;;;;;;;;;5085732;28;20438;-83
2021/12/18 03:25:00;;;;;;;7.97;4.80;;;;;;;;;;5120472;22;20582;-83
2021/12/18 03:27:27;;;;;;;9.73;4.20;;;;;;;;;;5082919;28;20493;-83
2021/12/18 03:29:55;;;;;;;8.83;4.30;;;;;;;;;;5077284;28;20473;-84
2021/12/18 03:32:21;;;;;;;8.43;4.47;;;;;;;;;;5081923;28;20509;-84
2021/12/18 03:34:48;;;;;;;11.60;4.37;;;;;;;;;;5081894;28;20975;-83
2021/12/18 03:37:14;;;;;;;7.43;3.37;;;;;;;;;;5082585;28;20455;-83
2021/12/18 03:39:40;;;;;;;12.00;4.97;;;;;;;;;;5083927;28;20820;-84
2021/12/18 03:42:07;;;;;;;11.30;4.00;;;;;;;;;;5084178;28;21409;-84
2021/12/18 03:44:35;;;;;;;14.23;4.43;;;;;;;;;;5082782;28;20532;-84
2021/12/18 03:47:01;;;;;;;11.90;4.80;;;;;;;;;;5084766;28;20481;-83
2021/12/18 03:49:28;;;;;;;9.00;4.47;;;;;;;;;;5082600;28;20482;-84
2021/12/18 03:51:54;;;;;;;11.90;6.37;;;;;;;;;;5084632;28;20951;-83
2021/12/18 03:54:20;;;;;;;10.17;6.47;;;;;;;;;;5084811;28;21019;-83
2021/12/18 03:56:46;;;;;;;12.60;6.80;;;;;;;;;;5084492;28;20456;-83
2021/12/18 03:59:13;;;;;;;11.67;5.40;;;;;;;;;;5083402;28;20470;-83
2021/12/18 04:01:41;;;;;;;12.27;7.40;;;;;;;;;;5084597;28;20447;-84
2021/12/18 04:04:07;;;;;;;13.27;6.10;;;;;;;;;;5083101;28;20479;-84
2021/12/18 04:06:37;;;;;;;15.00;6.90;;;;;;;;;;5075220;28;20454;-83
2021/12/18 04:09:03;;;;;;;15.33;6.23;;;;;;;;;;5084148;28;20467;-84
2021/12/18 04:11:29;;;;;;;16.80;7.33;;;;;;;;;;5085215;28;20481;-83
2021/12/18 04:13:56;;;;;;;16.47;7.20;;;;;;;;;;5083034;28;20481;-84
2021/12/18 04:16:22;;;;;;;10.40;5.80;;;;;;;;;;5085949;28;20951;-83
2021/12/18 04:18:50;;;;;;;12.37;5.67;;;;;;;;;;5084453;28;20501;-84
2021/12/18 04:21:16;;;;;;;14.17;5.27;;;;;;;;;;5085615;28;20472;-83
2021/12/18 04:23:42;;;;;;;9.83;5.30;;;;;;;;;;5082998;28;20471;-83
2021/12/18 04:26:08;;;;;;;16.83;6.80;;;;;;;;;;5084929;28;20501;-83
2021/12/18 04:28:35;;;;;;;7.10;4.53;;;;;;;;;;5084285;28;20462;-83
2021/12/18 04:31:01;;;;;;;10.37;5.03;;;;;;;;;;5085520;28;20451;-84
2021/12/18 04:33:27;;;;;;;9.47;5.83;;;;;;;;;;5083881;28;20474;-83
2021/12/18 04:35:55;;;;;;;15.90;5.27;;;;;;;;;;5081277;28;20461;-82
2021/12/18 04:38:21;;;;;;;8.33;4.53;;;;;;;;;;5080673;28;20454;-84
2021/12/18 04:40:49;;;;;;;7.43;3.83;;;;;;;;;;5082154;28;20450;-83
2021/12/18 04:43:15;;;;;;;9.00;4.63;;;;;;;;;;5079072;28;20483;-83
2021/12/18 04:45:42;;;;;;;11.77;3.97;;;;;;;;;;5080326;28;20491;-82
2021/12/18 04:48:08;;;;;;;6.50;3.50;;;;;;;;;;5082994;28;20482;-83
2021/12/18 04:50:34;;;;;;;11.00;4.63;;;;;;;;;;5082149;28;20466;-83
2021/12/18 04:53:02;;;;;;;9.87;5.43;;;;;;;;;;5080249;28;20483;-83
2021/12/18 04:55:28;;;;;;;8.93;5.03;;;;;;;;;;5081524;28;20482;-84
2021/12/18 04:57:55;;;;;;;9.53;3.87;;;;;;;;;;5079793;28;20508;-83
2021/12/18 05:00:27;;;;;;;9.27;4.27;;;;;;;;;;5078554;28;21024;-83
2021/12/18 05:02:54;;;;;;;9.40;5.07;;;;;;;;;;5080301;28;20477;-83
2021/12/18 05:05:21;;;;;;;6.87;4.20;;;;;;;;;;5080024;28;20568;-83
2021/12/18 05:07:47;;;;;;;10.13;6.00;;;;;;;;;;5082217;28;20584;-83
2021/12/18 05:10:14;;;;;;;6.60;4.40;;;;;;;;;;5079784;28;20486;-84
2021/12/18 05:12:41;;;;;;;10.10;4.63;;;;;;;;;;5081870;28;20450;-83
2021/12/18 05:15:07;;;;;;;7.40;4.90;;;;;;;;;;5081273;28;20475;-83
2021/12/18 05:17:34;;;;;;;7.67;4.60;;;;;;;;;;5080285;28;21098;-84
2021/12/18 05:20:00;;;;;;;7.90;5.47;;;;;;;;;;5079516;28;20995;-83
2021/12/18 05:22:26;;;;;;;8.63;5.20;;;;;;;;;;5077348;28;20465;-83
2021/12/18 05:24:52;;;;;;;10.67;5.30;;;;;;;;;;5076952;28;20486;-83
2021/12/18 05:27:20;;;;;;;7.83;4.60;;;;;;;;;;5082303;28;20482;-84
2021/12/18 05:29:46;;;;;;;6.67;3.77;;;;;;;;;;5079612;28;20483;-84
2021/12/18 05:32:12;;;;;;;8.80;5.27;;;;;;;;;;5079295;28;21026;-83
2021/12/18 05:34:40;;;;;;;9.30;4.97;;;;;;;;;;5078537;28;20481;-83
2021/12/18 05:37:19;;;;;;;12.33;4.67;;;;;;;;;;5080525;28;20473;-84
2021/12/18 05:39:46;;;;;;;10.17;5.50;;;;;;;;;;5075725;28;20481;-83
2021/12/18 05:42:13;;;;;;;9.83;5.23;;;;;;;;;;5079242;28;20471;-83
2021/12/18 05:44:40;;;;;;;10.53;5.83;;;;;;;;;;5076996;28;21086;-84
2021/12/18 05:47:07;;;;;;;8.90;5.03;;;;;;;;;;5081402;28;20520;-84
2021/12/18 05:49:33;;;;;;;9.40;4.90;;;;;;;;;;5079858;28;21128;-84
2021/12/18 05:51:59;;;;;;;9.50;5.60;;;;;;;;;;5082092;28;21008;-83
2021/12/18 05:54:25;;;;;;;11.93;4.77;;;;;;;;;;5081256;28;20482;-84
2021/12/18 05:56:52;;;;;;;10.47;5.63;;;;;;;;;;5080808;28;20528;-84
2021/12/18 05:59:18;;;;;;;12.40;4.80;;;;;;;;;;5080697;28;20478;-83
2021/12/18 06:01:46;;;;;;;10.70;5.83;;;;;;;;;;5079566;28;20443;-83
2021/12/18 06:04:12;;;;;;;11.83;5.53;;;;;;;;;;5080167;28;20474;-83
2021/12/18 06:06:38;;;;;;;11.90;5.13;;;;;;;;;;5085226;28;20445;-84
2021/12/18 06:09:05;;;;;;;8.97;5.20;;;;;;;;;;5083467;28;20485;-82
2021/12/18 06:11:32;;;;;;;10.33;5.23;;;;;;;;;;5083891;28;20447;-84
2021/12/18 06:13:58;;;;;;;14.50;4.60;;;;;;;;;;5073507;28;21062;-83
2021/12/18 06:16:25;;;;;;;12.87;6.63;;;;;;;;;;5079190;28;20972;-83
2021/12/18 06:18:52;;;;;;;11.47;5.13;;;;;;;;;;5075933;28;20475;-83
2021/12/18 06:21:20;;;;;;;13.13;6.40;;;;;;;;;;5082494;28;20443;-84
2021/12/18 06:23:47;;;;;;;13.73;6.77;;;;;;;;;;5084578;28;20482;-83
2021/12/18 06:26:14;;;;;;;10.43;5.33;;;;;;;;;;5084600;28;21034;-84
2021/12/18 06:28:40;;;;;;;9.43;5.40;;;;;;;;;;5084986;28;20471;-83
2021/12/18 06:31:07;;;;;;;11.87;5.67;;;;;;;;;;5087373;28;20450;-83
2021/12/18 06:33:33;;;;;;;10.10;5.20;;;;;;;;;;5085072;28;20474;-83
2021/12/18 06:36:00;;;;;;;10.87;5.30;;;;;;;;;;5084884;28;20446;-83
2021/12/18 06:38:27;;;;;;;14.73;4.70;;;;;;;;;;5083489;28;20454;-84
2021/12/18 06:40:53;;;;;;;8.30;5.30;;;;;;;;;;5080349;28;20449;-83
2021/12/18 06:43:20;;;;;;;8.80;4.10;;;;;;;;;;5080095;28;20470;-83
2021/12/18 06:45:46;;;;;;;13.20;4.73;;;;;;;;;;5085451;28;20509;-84
2021/12/18 06:48:12;;;;;;;13.60;5.07;;;;;;;;;;5081878;28;20483;-83
2021/12/18 06:50:39;;;;;;;17.73;5.00;;;;;;;;;;5085683;28;20486;-84
2021/12/18 06:53:07;;;;;;;16.73;4.80;;;;;;;;;;5084511;28;20457;-84
2021/12/18 06:55:33;;;;;;;10.60;4.30;;;;;;;;;;5084527;28;20481;-84
2021/12/18 06:57:59;;;;;;;19.30;6.70;;;;;;;;;;5084461;28;20446;-83
2021/12/18 07:00:26;;;;;;;10.67;4.43;;;;;;;;;;5085526;28;20470;-83
2021/12/18 07:02:53;;;;;;;13.30;5.53;;;;;;;;;;5084264;28;20467;-83
2021/12/18 07:05:19;;;;;;;21.37;6.00;;;;;;;;;;5086061;28;20467;-84
2021/12/18 07:07:45;;;;;;;15.80;5.90;;;;;;;;;;5081518;28;21530;-83
2021/12/18 07:10:14;;;;;;;16.37;5.60;;;;;;;;;;5084328;28;20459;-83
2021/12/18 07:12:40;;;;;;;17.93;5.47;;;;;;;;;;5083691;28;20803;-83
2021/12/18 07:15:08;;;;;;;11.93;5.17;;;;;;;;;;5084849;28;20466;-84
2021/12/18 07:17:34;;;;;;;11.23;5.03;;;;;;;;;;5084431;28;20959;-84
2021/12/18 07:20:00;;;;;;;25.63;6.17;;;;;;;;;;5082701;28;20471;-84
2021/12/18 07:22:26;;;;;;;18.70;6.17;;;;;;;;;;5083262;28;20500;-83
2021/12/18 07:24:53;;;;;;;16.03;5.53;;;;;;;;;;5084326;28;20466;-84
2021/12/18 07:27:20;;;;;;;15.67;5.73;;;;;;;;;;5084615;28;20465;-84
2021/12/18 07:29:47;;;;;;;21.00;5.23;;;;;;;;;;5085231;28;20467;-83
2021/12/18 07:32:13;;;;;;;19.40;6.53;;;;;;;;;;5083437;28;20454;-83
2021/12/18 07:34:39;;;;;;;19.93;5.80;;;;;;;;;;5085443;28;20467;-84
2021/12/18 07:37:05;;;;;;;16.37;5.93;;;;;;;;;;5083832;28;20447;-84
2021/12/18 07:39:32;;;;;;;19.37;6.07;;;;;;;;;;5083235;28;20474;-84
2021/12/18 07:41:58;;;;;;;24.87;7.93;;;;;;;;;;5084832;28;20455;-83
2021/12/18 07:44:25;;;;;;;27.03;6.10;;;;;;;;;;5083304;28;20470;-83
2021/12/18 07:46:52;;;;;;;18.87;6.50;;;;;;;;;;5084718;28;20442;-83
2021/12/18 07:49:18;;;;;;;15.30;6.60;;;;;;;;;;5083492;28;20474;-84
2021/12/18 07:51:44;;;;;;;15.23;7.27;;;;;;;;;;5084274;28;20450;-83
2021/12/18 07:54:10;;;;;;;19.40;7.07;;;;;;;;;;5079138;28;20479;-83
2021/12/18 07:56:37;;;;;;;16.10;7.47;;;;;;;;;;5082367;28;20439;-83
2021/12/18 07:59:03;;;;;;;12.00;6.10;;;;;;;;;;5081561;28;20830;-83
2021/12/18 08:01:31;;;;;;;14.97;7.30;;;;;;;;;;5081786;28;20495;-84
2021/12/18 08:03:57;;;;;;;12.07;6.27;;;;;;;;;;5080668;28;20527;-86
2021/12/18 08:06:23;;;;;;;16.97;7.27;;;;;;;;;;5080644;28;20500;-84
2021/12/18 08:08:50;;;;;;;15.27;6.57;;;;;;;;;;5080356;28;20482;-84
2021/12/18 08:11:16;;;;;;;11.40;7.00;;;;;;;;;;5081157;28;20537;-84
2021/12/18 08:13:43;;;;;;;16.73;6.63;;;;;;;;;;5081147;28;20477;-83
2021/12/18 08:16:09;;;;;;;13.27;6.30;;;;;;;;;;5081296;28;20970;-84
2021/12/18 08:18:36;;;;;;;10.27;5.50;;;;;;;;;;5082570;28;20455;-83
2021/12/18 08:21:03;;;;;;;14.23;5.67;;;;;;;;;;5083236;28;20532;-84
2021/12/18 08:23:29;;;;;;;7.90;5.80;;;;;;;;;;5082590;28;20920;-84
2021/12/18 08:25:55;;;;;;;12.80;5.10;;;;;;;;;;5083641;28;20450;-83
2021/12/18 08:28:21;;;;;;;10.13;5.30;;;;;;;;;;5080296;28;20550;-83
2021/12/18 08:30:48;;;;;;;11.90;6.47;;;;;;;;;;5083266;28;20563;-84
2021/12/18 08:33:14;;;;;;;9.77;5.80;;;;;;;;;;5082756;28;20474;-84
2021/12/18 08:35:42;;;;;;;9.03;5.30;;;;;;;;;;5084466;28;20455;-84
2021/12/18 08:38:08;;;;;;;6.73;4.20;;;;;;;;;;5082895;28;20450;-83
2021/12/18 08:40:35;;;;;;;10.30;4.70;;;;;;;;;;5082367;28;20446;-83
2021/12/18 08:43:01;;;;;;;8.77;5.30;;;;;;;;;;5082660;28;20462;-83
2021/12/18 08:45:28;;;;;;;8.70;4.53;;;;;;;;;;5083365;28;20477;-84
2021/12/18 08:47:55;;;;;;;7.13;4.87;;;;;;;;;;5084771;28;20501;-83
2021/12/18 08:50:21;;;;;;;6.93;4.20;;;;;;;;;;5083419;28;20559;-83
2021/12/18 08:52:50;;;;;;;8.37;4.43;;;;;;;;;;5084129;28;20454;-83
2021/12/18 08:55:18;;;;;;;7.40;3.70;;;;;;;;;;5081634;28;20895;-83
2021/12/18 08:57:44;;;;;;;8.17;4.07;;;;;;;;;;5083112;28;20469;-82
2021/12/18 09:00:11;;;;;;;6.77;3.73;;;;;;;;;;5084346;28;20470;-85
2021/12/18 09:02:39;;;;;;;5.10;3.43;;;;;;;;;;5082966;28;20443;-83
2021/12/18 09:05:07;;;;;;;5.07;3.50;;;;;;;;;;5081555;28;20473;-84
2021/12/18 09:07:33;;;;;;;6.70;3.70;;;;;;;;;;5083294;28;20450;-84
2021/12/18 09:10:01;;;;;;;6.63;3.13;;;;;;;;;;5083155;28;20483;-84
2021/12/18 09:12:27;;;;;;;5.03;2.93;;;;;;;;;;5083884;28;20446;-83
2021/12/18 09:14:53;;;;;;;4.53;2.67;;;;;;;;;;5082070;28;20486;-84
2021/12/18 09:17:20;;;;;;;3.83;2.90;;;;;;;;;;5082427;28;20822;-84
2021/12/18 09:19:46;;;;;;;5.60;2.50;;;;;;;;;;5082140;28;20477;-84
2021/12/18 09:22:12;;;;;;;7.17;2.50;;;;;;;;;;5083436;28;20450;-83
2021/12/18 09:24:39;;;;;;;4.40;3.30;;;;;;;;;;5080146;28;20513;-84
2021/12/18 09:27:06;;;;;;;4.40;3.40;;;;;;;;;;5078574;28;20451;-84
2021/12/18 09:29:33;;;;;;;5.97;3.40;;;;;;;;;;5076686;28;20479;-84
2021/12/18 09:31:59;;;;;;;9.77;3.70;;;;;;;;;;5080232;28;20458;-83
2021/12/18 09:34:27;;;;;;;4.90;3.60;;;;;;;;;;5080986;28;20477;-88
2021/12/18 09:36:54;;;;;;;6.70;3.93;;;;;;;;;;5079651;28;20959;-85
2021/12/18 09:39:20;;;;;;;9.27;4.20;;;;;;;;;;5082919;28;20495;-84
2021/12/18 09:41:48;;;;;;;7.57;3.80;;;;;;;;;;5087049;28;20447;-84
2021/12/18 09:44:15;;;;;;;11.40;4.03;;;;;;;;;;5085228;28;20500;-84
2021/12/18 09:46:42;;;;;;;6.90;4.13;;;;;;;;;;5086972;28;20449;-84
2021/12/18 09:49:08;;;;;;;10.13;3.80;;;;;;;;;;5086315;28;20548;-84
2021/12/18 09:51:37;;;;;;;6.20;4.00;;;;;;;;;;5086680;28;20795;-84
2021/12/18 09:54:03;;;;;;;4.20;3.40;;;;;;;;;;5085710;28;20842;-84
2021/12/18 09:56:29;;;;;;;8.83;3.50;;;;;;;;;;5086846;28;20454;-84
2021/12/18 09:58:56;;;;;;;5.43;3.67;;;;;;;;;;5083757;28;20474;-84
2021/12/18 10:01:23;;;;;;;6.80;3.90;;;;;;;;;;5085270;28;20446;-84
2021/12/18 10:03:50;;;;;;;5.30;3.37;;;;;;;;;;5085166;28;20474;-84
2021/12/18 10:06:33;;;;;;;6.03;3.07;;;;;;;;;;5085949;28;20476;-83
2021/12/18 10:08:59;;;;;;;3.40;2.47;;;;;;;;;;5083499;28;20486;-85
2021/12/18 10:11:26;;;;;;;4.50;2.43;;;;;;;;;;5085076;28;20939;-84
2021/12/18 10:13:53;;;;;;;5.87;2.80;;;;;;;;;;5084442;28;21053;-84
2021/12/18 10:16:19;;;;;;;5.93;3.07;;;;;;;;;;5086135;28;20472;-84
2021/12/18 10:18:47;;;;;;;3.27;2.97;;;;;;;;;;5084429;28;20470;-84
2021/12/18 10:21:15;;;;;;;5.40;3.57;;;;;;;;;;5085313;28;20452;-84
2021/12/18 10:23:42;;;;;;;7.37;3.33;;;;;;;;;;5080825;28;21079;-84
2021/12/18 10:26:09;;;;;;;6.27;3.37;;;;;;;;;;5085926;28;20437;-84
2021/12/18 10:28:45;;;;;;;7.23;3.00;;;;;;;;;;5084534;28;20524;-84
2021/12/18 10:31:11;;;;;;;7.17;3.60;;;;;;;;;;5086509;28;20469;-84
2021/12/18 10:33:37;;;;;;;9.13;4.60;;;;;;;;;;5084702;28;20466;-84
2021/12/18 10:36:13;;;;;;;7.93;3.67;;;;;;;;;;5084638;28;20465;-84
2021/12/18 10:38:43;;;;;;;7.43;4.63;;;;;;;;;;5085129;28;20519;-84
2021/12/18 10:41:20;;;;;;;18.63;5.77;;;;;;;;;;5085767;28;20476;-84
2021/12/18 10:43:57;;;;;;;10.40;3.63;;;;;;;;;;5084681;28;21030;-84
2021/12/18 10:46:23;;;;;;;7.10;3.73;;;;;;;;;;5085814;28;20457;-84
2021/12/18 10:48:54;;;;;;;12.30;4.10;;;;;;;;;;5084173;28;20504;-84
2021/12/18 10:51:23;;;;;;;10.63;3.80;;;;;;;;;;5086097;28;20503;-84
2021/12/18 10:53:50;;;;;;;11.80;4.27;;;;;;;;;;5084091;28;20470;-84
2021/12/18 10:56:16;;;;;;;8.77;4.40;;;;;;;;;;5085106;28;20462;-84
2021/12/18 10:58:43;;;;;;;11.30;3.97;;;;;;;;;;5084718;28;20528;-82
2021/12/18 11:01:10;;;;;;;8.57;3.40;;;;;;;;;;5084101;28;20473;-84
2021/12/18 11:03:38;;;;;;;8.60;4.50;;;;;;;;;;5084156;28;20474;-85
2021/12/18 11:06:12;;;;;;;6.27;4.07;;;;;;;;;;5085040;28;20446;-85
2021/12/18 11:08:59;;;;;;;9.13;3.83;;;;;;;;;;5083349;28;20481;-84
2021/12/18 11:14:10;;;;;;;13.30;4.47;;;;;;;;;;5080390;28;21073;-85
2021/12/18 11:16:37;;;;;;;16.20;6.03;;;;;;;;;;5084825;28;20446;-84
2021/12/18 11:19:04;;;;;;;8.40;4.07;;;;;;;;;;5084527;28;20473;-84
2021/12/18 11:21:31;;;;;;;13.97;5.20;;;;;;;;;;5084780;28;20531;-84
2021/12/18 11:24:01;;;;;;;9.47;3.73;;;;;;;;;;5084635;28;20486;-83
2021/12/18 11:26:31;;;;;;;18.07;4.70;;;;;;;;;;5083210;28;20454;-84
2021/12/18 11:28:59;;;;;;;15.73;4.73;;;;;;;;;;5081941;28;20481;-84
2021/12/18 11:31:27;;;;;;;16.17;5.13;;;;;;;;;;5084177;28;20476;-85
2021/12/18 11:33:54;;;;;;;16.60;5.13;;;;;;;;;;5084150;28;20482;-84
2021/12/18 11:36:20;;;;;;;15.87;5.63;;;;;;;;;;5083921;28;20495;-84
2021/12/18 11:38:48;;;;;;;7.87;3.90;;;;;;;;;;5083297;28;20482;-84
2021/12/18 11:41:17;;;;;;;14.57;5.20;;;;;;;;;;5084491;28;20469;-84
2021/12/18 11:43:46;;;;;;;14.33;4.73;;;;;;;;;;5082649;28;20579;-83
2021/12/18 11:46:30;;;;;;;12.80;5.30;;;;;;;;;;5082695;28;20932;-84
2021/12/18 11:48:57;;;;;;;19.77;5.70;;;;;;;;;;5081938;28;21074;-84
2021/12/18 11:51:24;;;;;;;11.63;5.23;;;;;;;;;;5084617;28;20455;-84
2021/12/18 11:53:50;;;;;;;16.80;4.60;;;;;;;;;;5083547;28;20540;-84
2021/12/18 11:56:18;;;;;;;13.87;4.30;;;;;;;;;;5085335;28;20495;-84
2021/12/18 11:58:45;;;;;;;14.20;6.43;;;;;;;;;;5082347;28;20481;-84
2021/12/18 12:01:16;;;;;;;9.70;4.33;;;;;;;;;;5082892;28;20495;-84
2021/12/18 12:03:43;;;;;;;20.10;6.47;;;;;;;;;;5081378;28;20473;-84
2021/12/18 12:06:24;;;;;;;14.37;4.87;;;;;;;;;;5084313;28;20528;-84
2021/12/18 12:09:10;;;;;;;20.20;5.30;;;;;;;;;;5083617;28;20518;-83
2021/12/18 12:11:49;;;;;;;14.47;4.80;;;;;;;;;;5084074;28;20856;-85
2021/12/18 12:14:19;;;;;;;10.60;4.20;;;;;;;;;;5083790;28;20470;-84
2021/12/18 12:17:06;;;;;;;18.40;5.20;;;;;;;;;;5083754;28;20473;-84
2021/12/18 12:19:40;;;;;;;13.83;5.07;;;;;;;;;;5082517;28;20455;-84
2021/12/18 12:22:08;;;;;;;17.27;9.63;;;;;;;;;;5084180;28;20439;-83
2021/12/18 12:24:51;;;;;;;8.80;3.80;;;;;;;;;;5082722;28;20568;-84
2021/12/18 12:27:28;;;;;;;9.57;3.83;;;;;;;;;;5083415;28;20451;-84
2021/12/18 12:29:55;;;;;;;18.33;4.67;;;;;;;;;;5081860;28;21101;-85
2021/12/18 12:32:21;;;;;;;11.17;4.20;;;;;;;;;;5083056;28;20503;-84
2021/12/18 12:34:58;;;;;;;16.33;5.00;;;;;;;;;;5077399;28;20487;-83
2021/12/18 12:37:31;;;;;;;15.40;5.17;;;;;;;;;;5084814;28;20446;-84
2021/12/18 12:40:01;;;;;;;9.47;4.23;;;;;;;;;;5081830;28;20470;-84
2021/12/18 12:42:29;;;;;;;15.50;4.37;;;;;;;;;;5084629;28;20496;-84
2021/12/18 12:45:01;;;;;;;17.07;4.77;;;;;;;;;;5083184;28;20478;-84
2021/12/18 12:47:28;;;;;;;17.57;4.33;;;;;;;;;;5082298;28;20454;-85
2021/12/18 12:49:56;;;;;;;11.93;4.30;;;;;;;;;;5081984;28;20478;-84
2021/12/18 12:52:23;;;;;;;14.00;5.20;;;;;;;;;;5084875;28;20445;-85
2021/12/18 12:54:51;;;;;;;14.80;4.70;;;;;;;;;;5082103;28;20478;-83
2021/12/18 12:57:39;;;;;;;10.43;4.73;;;;;;;;;;5083925;28;20446;-84
2021/12/18 13:00:24;;;;;;;16.40;4.40;;;;;;;;;;5082685;28;20838;-84
2021/12/18 13:02:51;;;;;;;13.70;5.10;;;;;;;;;;5083291;28;20438;-84
2021/12/18 13:05:18;;;;;;;11.10;3.97;;;;;;;;;;5082964;28;20466;-84
2021/12/18 13:07:45;;;;;;;10.50;4.23;;;;;;;;;;5083794;28;20446;-83
2021/12/18 13:10:11;;;;;;;12.97;4.93;;;;;;;;;;5082216;28;20475;-85
2021/12/18 13:12:52;;;;;;;13.90;4.50;;;;;;;;;;5083859;28;20500;-83
2021/12/18 13:15:18;;;;;;;26.00;5.10;;;;;;;;;;5083491;28;20556;-84
2021/12/18 13:17:45;;;;;;;16.30;5.60;;;;;;;;;;5083581;28;20453;-83
2021/12/18 13:20:11;;;;;;;10.20;4.90;;;;;;;;;;5083207;28;21019;-84
2021/12/18 13:22:37;;;;;;;12.97;5.10;;;;;;;;;;5081797;28;20438;-84
2021/12/18 13:25:05;;;;;;;13.77;4.70;;;;;;;;;;5081946;28;20469;-84
2021/12/18 13:27:32;;;;;;;13.13;4.67;;;;;;;;;;5084329;28;20943;-84
2021/12/18 13:30:14;;;;;;;13.33;4.43;;;;;;;;;;5082200;28;20904;-83
2021/12/18 13:32:50;;;;;;;17.83;5.40;;;;;;;;;;5084537;28;20460;-84
2021/12/18 13:35:17;;;;;;;15.00;5.17;;;;;;;;;;5083649;28;20649;-84
2021/12/18 13:37:43;;;;;;;14.30;3.90;;;;;;;;;;5084079;28;20449;-84
2021/12/18 13:40:14;;;;;;;16.57;5.27;;;;;;;;;;5083865;28;20866;-85
2021/12/18 13:42:41;;;;;;;15.13;5.47;;;;;;;;;;5083313;28;20442;-85
2021/12/18 13:45:07;;;;;;;10.23;4.50;;;;;;;;;;5083058;28;21059;-84
2021/12/18 13:47:36;;;;;;;12.63;4.30;;;;;;;;;;5083418;28;20450;-84
2021/12/18 13:50:07;;;;;;;10.97;3.80;;;;;;;;;;5083841;28;20480;-84
2021/12/18 13:52:35;;;;;;;19.37;4.50;;;;;;;;;;5085021;28;20496;-84
2021/12/18 13:55:01;;;;;;;15.23;4.30;;;;;;;;;;5083464;28;20466;-85
2021/12/18 13:57:27;;;;;;;15.13;4.57;;;;;;;;;;5084245;28;20491;-84
2021/12/18 13:59:58;;;;;;;12.50;4.83;;;;;;;;;;5082975;28;20527;-83
2021/12/18 14:02:24;;;;;;;11.10;4.20;;;;;;;;;;5081743;28;20447;-84
2021/12/18 14:04:52;;;;;;;9.60;3.60;;;;;;;;;;5081999;28;20976;-84
2021/12/18 14:07:19;;;;;;;12.23;4.30;;;;;;;;;;5082389;28;20862;-84
2021/12/18 14:09:45;;;;;;;12.93;4.47;;;;;;;;;;5082812;28;20516;-84
2021/12/18 14:12:15;;;;;;;16.27;3.90;;;;;;;;;;5082951;28;20449;-84
2021/12/18 14:14:43;;;;;;;11.67;4.23;;;;;;;;;;5081990;28;20497;-84
2021/12/18 14:17:11;;;;;;;16.97;4.83;;;;;;;;;;5083232;28;20442;-84
2021/12/18 14:19:38;;;;;;;9.87;3.40;;;;;;;;;;5082045;28;20469;-85
2021/12/18 14:22:06;;;;;;;8.70;4.20;;;;;;;;;;5083402;28;20446;-84
2021/12/18 14:24:33;;;;;;;15.47;4.90;;;;;;;;;;5083080;28;20485;-84
2021/12/18 14:27:01;;;;;;;13.53;4.10;;;;;;;;;;5084362;28;20875;-84
2021/12/18 14:29:29;;;;;;;11.33;5.27;;;;;;;;;;5086473;28;20493;-83
2021/12/18 14:31:55;;;;;;;11.50;3.90;;;;;;;;;;5087211;28;20504;-84
2021/12/18 14:34:23;;;;;;;13.93;4.20;;;;;;;;;;5086760;28;20470;-84
2021/12/18 14:36:52;;;;;;;9.50;4.03;;;;;;;;;;5083317;28;20468;-84
2021/12/18 14:39:24;;;;;;;13.03;3.90;;;;;;;;;;5085443;28;20488;-85
2021/12/18 14:41:54;;;;;;;9.57;4.97;;;;;;;;;;5087139;28;20851;-85
2021/12/18 14:44:20;;;;;;;10.20;3.23;;;;;;;;;;5085342;28;20987;-84
2021/12/18 14:46:47;;;;;;;17.60;4.53;;;;;;;;;;5087992;28;20879;-84
2021/12/18 14:49:14;;;;;;;10.33;4.30;;;;;;;;;;5085668;28;20523;-84
2021/12/18 14:51:43;;;;;;;15.23;5.07;;;;;;;;;;5086425;28;20539;-84
2021/12/18 14:54:09;;;;;;;9.43;4.47;;;;;;;;;;5085692;28;21015;-84
2021/12/18 14:56:37;;;;;;;9.13;4.07;;;;;;;;;;5086451;28;20453;-84
2021/12/18 14:59:16;;;;;;;16.63;4.77;;;;;;;;;;5086249;28;20466;-84
2021/12/18 15:01:42;;;;;;;23.57;4.40;;;;;;;;;;5087032;28;20430;-83
2021/12/18 15:04:18;;;;;;;15.10;5.97;;;;;;;;;;5086085;28;20474;-84
2021/12/18 15:06:45;;;;;;;13.60;4.50;;;;;;;;;;5086248;28;20447;-83
2021/12/18 15:09:13;;;;;;;11.73;5.50;;;;;;;;;;5086283;28;20546;-84
2021/12/18 15:11:46;;;;;;;6.83;4.40;;;;;;;;;;5086739;28;20479;-85
2021/12/18 15:14:13;;;;;;;12.10;5.10;;;;;;;;;;5084391;28;20471;-85